Time;durP1;ratioP1;P1;durP2;ratioP2;P2;SDS_P1;SDS_P2;PMS_P1;PMS_P2;Temp;Humidity;BMP_temperature;BMP_pressure;BME280_temperature;BME280_humidity;BME280_pressure;Samples;Min_cycle;Max_cycle;Signal;HPM_P1;HPM_P2
2023/05/11 00:02:13;;;;;;;8.18;3.28;;;;;;;20.52;39.38;101222.47;5017569;28;20021;-35
2023/05/11 00:04:38;;;;;;;6.82;2.97;;;;;;;20.50;39.59;101224.44;5014673;28;20041;-35
2023/05/11 00:07:04;;;;;;;6.65;3.22;;;;;;;20.48;39.51;101219.22;5016015;28;20060;-35
2023/05/11 00:09:30;;;;;;;7.07;3.45;;;;;;;20.50;39.72;101224.44;5007585;28;20148;-36
2023/05/11 00:11:56;;;;;;;5.13;2.65;;;;;;;20.46;39.67;101223.03;5018054;28;20025;-35
2023/05/11 00:14:21;;;;;;;4.93;3.08;;;;;;;20.46;39.56;101221.19;5012393;28;20033;-36
2023/05/11 00:16:47;;;;;;;4.55;3.00;;;;;;;20.44;39.64;101222.34;5020706;28;20033;-36
2023/05/11 00:19:12;;;;;;;5.28;3.15;;;;;;;20.45;39.69;101219.50;5013544;28;20038;-36
2023/05/11 00:21:38;;;;;;;7.22;3.47;;;;;;;20.45;39.60;101222.19;5017117;28;20054;-36
2023/05/11 00:24:04;;;;;;;6.50;2.95;;;;;;;20.45;39.78;101226.69;5014747;28;20038;-35
2023/05/11 00:26:29;;;;;;;4.40;2.80;;;;;;;20.42;39.97;101227.81;5018703;28;20041;-36
2023/05/11 00:28:55;;;;;;;7.28;3.00;;;;;;;20.42;40.12;101219.78;5008120;28;20064;-35
2023/05/11 00:31:20;;;;;;;5.97;2.97;;;;;;;20.41;40.08;101229.66;5014470;28;20033;-35
2023/05/11 00:33:45;;;;;;;6.45;3.70;;;;;;;20.39;40.05;101222.78;5014190;28;20091;-35
2023/05/11 00:36:11;;;;;;;6.00;3.03;;;;;;;20.35;40.03;101227.53;5015992;28;20415;-35
2023/05/11 00:38:39;;;;;;;4.20;3.10;;;;;;;20.33;39.81;101229.53;5014883;28;21447;-36
2023/05/11 00:41:08;;;;;;;5.30;3.17;;;;;;;20.29;40.05;101238.81;5010980;28;20407;-35
2023/05/11 00:43:33;;;;;;;7.22;3.30;;;;;;;20.28;40.14;101238.91;5014026;28;20088;-35
2023/05/11 00:46:00;;;;;;;5.65;3.10;;;;;;;20.27;40.21;101240.75;5019272;28;20029;-35
2023/05/11 00:48:26;;;;;;;7.95;3.80;;;;;;;20.28;40.09;101239.78;5016138;28;20483;-36
2023/05/11 00:50:52;;;;;;;5.60;3.47;;;;;;;20.27;39.93;101245.28;5019194;28;20088;-35
2023/05/11 00:53:18;;;;;;;6.45;3.47;;;;;;;20.20;40.10;101242.28;5013662;28;20458;-35
2023/05/11 00:55:43;;;;;;;5.35;3.70;;;;;;;20.15;40.51;101247.22;5022828;28;20048;-35
2023/05/11 00:58:09;;;;;;;5.05;3.60;;;;;;;20.09;40.47;101248.63;5017194;28;20119;-35
2023/05/11 01:00:35;;;;;;;6.82;3.45;;;;;;;20.06;40.59;101247.06;5018684;28;20399;-35
2023/05/11 01:03:01;;;;;;;6.32;3.38;;;;;;;20.00;40.63;101244.09;5017241;28;20021;-33
2023/05/11 01:05:35;;;;;;;6.60;4.20;;;;;;;20.02;40.63;101242.16;5017908;28;20049;-33
2023/05/11 01:08:16;;;;;;;5.25;3.17;;;;;;;20.01;40.94;101243.97;5020298;28;20033;-33
2023/05/11 01:10:59;;;;;;;9.70;3.85;;;;;;;19.97;41.10;101253.25;5017464;28;20384;-33
2023/05/11 01:13:41;;;;;;;5.85;3.58;;;;;;;19.94;41.08;101256.19;5010721;28;20065;-33
2023/05/11 01:16:13;;;;;;;6.72;3.90;;;;;;;19.91;41.05;101251.13;5017024;28;20287;-33
2023/05/11 01:18:45;;;;;;;6.03;3.58;;;;;;;19.88;41.01;101251.41;5012516;28;20037;-33
2023/05/11 01:21:14;;;;;;;6.45;4.10;;;;;;;19.86;41.05;101258.69;5014575;28;20033;-33
2023/05/11 01:23:52;;;;;;;9.25;3.85;;;;;;;19.83;40.95;101253.59;5013473;28;20037;-33
2023/05/11 01:26:26;;;;;;;8.93;3.55;;;;;;;19.80;41.06;101263.56;5010548;28;20111;-33
2023/05/11 01:29:16;;;;;;;7.32;3.95;;;;;;;19.84;41.01;101260.66;5008727;28;20079;-33
2023/05/11 01:31:46;;;;;;;8.35;4.40;;;;;;;19.80;40.94;101260.91;5018779;28;20025;-33
2023/05/11 01:34:34;;;;;;;10.60;4.45;;;;;;;19.76;41.15;101264.81;5014704;28;20041;-33
2023/05/11 01:37:20;;;;;;;7.80;3.72;;;;;;;19.73;41.42;101267.78;5015816;28;20702;-33
2023/05/11 01:39:57;;;;;;;8.10;4.57;;;;;;;19.72;41.13;101270.56;5013019;28;20037;-33
2023/05/11 01:42:46;;;;;;;6.00;4.28;;;;;;;19.69;41.21;101268.16;5007816;28;20022;-33
2023/05/11 01:45:14;;;;;;;5.32;3.95;;;;;;;19.68;41.15;101274.50;5018259;28;20025;-33
2023/05/11 01:47:40;;;;;;;9.73;6.32;;;;;;;19.70;40.86;101269.88;5017567;28;20033;-33
2023/05/11 01:50:07;;;;;;;11.15;4.47;;;;;;;19.70;40.85;101284.06;5014429;28;20041;-33
2023/05/11 01:52:36;;;;;;;13.13;4.50;;;;;;;19.68;41.24;101282.50;5010210;28;20025;-33
2023/05/11 01:55:04;;;;;;;9.27;4.28;;;;;;;19.65;41.12;101283.63;5018329;28;20479;-33
2023/05/11 01:57:31;;;;;;;8.65;4.85;;;;;;;19.64;41.07;101279.25;5011808;28;20037;-33
2023/05/11 01:59:59;;;;;;;7.50;4.20;;;;;;;19.66;41.18;101287.97;5014536;28;20144;-34
2023/05/11 02:02:26;;;;;;;8.10;4.85;;;;;;;19.64;41.10;101292.59;5008391;28;20029;-33
2023/05/11 02:04:53;;;;;;;8.80;4.80;;;;;;;19.65;41.06;101291.63;5015582;28;20036;-33
2023/05/11 02:07:20;;;;;;;9.52;4.20;;;;;;;19.69;40.67;101295.72;5017657;28;20017;-33
2023/05/11 02:09:47;;;;;;;11.98;4.90;;;;;;;19.64;41.14;101290.81;5020380;28;20123;-33
2023/05/11 02:12:16;;;;;;;6.30;4.57;;;;;;;19.64;41.28;101290.81;5030600;28;20018;-33
2023/05/11 02:14:42;;;;;;;13.50;5.20;;;;;;;19.64;41.17;101295.28;5006902;28;20049;-33
2023/05/11 02:17:08;;;;;;;10.30;5.60;;;;;;;19.60;41.24;101292.03;5013146;28;20072;-33
2023/05/11 02:19:36;;;;;;;9.43;6.45;;;;;;;19.56;41.23;101295.13;5007055;28;20053;-33
2023/05/11 02:22:03;;;;;;;10.30;5.55;;;;;;;19.54;41.35;101291.72;5011876;28;20403;-33
2023/05/11 02:24:29;;;;;;;8.13;4.63;;;;;;;19.51;41.32;101295.53;5008671;28;20041;-33
2023/05/11 02:26:57;;;;;;;9.35;5.47;;;;;;;19.54;41.24;101297.06;5014593;28;20029;-33
2023/05/11 02:29:23;;;;;;;7.88;4.60;;;;;;;19.47;41.57;101300.25;5014580;28;20034;-33
2023/05/11 02:31:55;;;;;;;9.35;5.75;;;;;;;19.48;41.56;101298.47;5011534;28;20043;-33
2023/05/11 02:34:37;;;;;;;12.90;5.75;;;;;;;19.43;41.38;101306.88;5011365;28;20437;-33
2023/05/11 02:37:08;;;;;;;10.18;5.35;;;;;;;19.38;41.54;101310.88;5017889;28;20025;-33
2023/05/11 02:39:35;;;;;;;12.73;5.23;;;;;;;19.33;41.51;101311.28;5012118;28;20063;-33
2023/05/11 02:42:14;;;;;;;8.75;5.38;;;;;;;19.30;41.51;101309.75;5020021;28;20193;-33
2023/05/11 02:44:48;;;;;;;7.65;5.10;;;;;;;19.24;41.69;101312.09;5024210;28;20052;-34
2023/05/11 02:47:16;;;;;;;13.32;5.15;;;;;;;19.24;41.44;101306.75;5024685;28;20442;-33
2023/05/11 02:49:44;;;;;;;6.88;4.85;;;;;;;19.21;41.82;101310.50;5021672;28;20025;-33
2023/05/11 02:52:12;;;;;;;7.75;5.43;;;;;;;19.23;41.73;101310.41;5023599;28;20539;-33
2023/05/11 02:54:39;;;;;;;9.88;5.30;;;;;;;19.23;41.75;101321.06;5028554;28;20070;-33
2023/05/11 02:57:05;;;;;;;13.27;5.10;;;;;;;19.19;41.86;101316.00;5024169;28;20034;-34
2023/05/11 02:59:31;;;;;;;10.10;4.95;;;;;;;19.17;41.75;101323.28;5029110;28;20544;-33
2023/05/11 03:01:57;;;;;;;14.43;5.10;;;;;;;19.15;41.73;101313.72;5022377;28;20029;-33
2023/05/11 03:04:23;;;;;;;11.80;5.45;;;;;;;19.17;41.96;101317.94;5022407;28;20042;-33
2023/05/11 03:06:49;;;;;;;8.40;4.82;;;;;;;19.10;41.87;101322.13;5022388;28;20383;-33
2023/05/11 03:09:15;;;;;;;12.38;5.65;;;;;;;19.08;42.07;101318.75;5026237;28;20029;-33
2023/05/11 03:11:41;;;;;;;11.73;5.43;;;;;;;19.06;42.05;101319.84;5024084;28;20108;-34
2023/05/11 03:14:07;;;;;;;10.13;4.93;;;;;;;19.05;42.03;101335.00;5027836;28;20044;-34
2023/05/11 03:16:33;;;;;;;9.77;5.32;;;;;;;19.06;41.96;101333.19;5024771;28;20033;-33
2023/05/11 03:19:00;;;;;;;13.48;5.50;;;;;;;19.01;41.93;101328.22;5028679;28;20057;-33
2023/05/11 03:21:26;;;;;;;10.05;5.97;;;;;;;18.95;42.10;101332.25;5025228;28;20025;-33
2023/05/11 03:23:51;;;;;;;11.05;5.63;;;;;;;18.86;42.16;101331.16;5029625;28;20111;-33
2023/05/11 03:26:20;;;;;;;11.63;6.03;;;;;;;18.84;42.27;101327.78;5028647;28;20034;-33
2023/05/11 03:28:46;;;;;;;8.02;5.35;;;;;;;18.82;42.33;101329.75;5028413;28;20037;-33
2023/05/11 03:31:11;;;;;;;12.50;5.40;;;;;;;18.84;42.00;101330.44;5025205;28;20438;-33
2023/05/11 03:33:37;;;;;;;10.93;5.75;;;;;;;18.83;42.24;101330.59;5028709;28;20526;-33
2023/05/11 03:36:04;;;;;;;9.88;5.95;;;;;;;18.77;42.05;101325.75;5027036;28;20026;-33
2023/05/11 03:38:31;;;;;;;12.77;5.80;;;;;;;18.67;42.24;101323.88;5030834;28;20036;-33
2023/05/11 03:40:57;;;;;;;9.18;5.30;;;;;;;18.66;42.16;101326.69;5022771;28;20104;-33
2023/05/11 03:43:26;;;;;;;15.80;6.05;;;;;;;18.64;42.14;101336.63;5024141;28;20541;-33
2023/05/11 03:45:52;;;;;;;10.13;5.78;;;;;;;18.63;42.06;101333.09;5023489;28;20040;-33
2023/05/11 03:48:20;;;;;;;11.50;5.93;;;;;;;18.58;42.36;101344.13;5026396;28;20037;-33
2023/05/11 03:50:46;;;;;;;9.15;5.65;;;;;;;18.58;42.49;101333.47;5023947;28;20495;-33
2023/05/11 03:53:12;;;;;;;11.85;5.10;;;;;;;18.58;42.25;101337.97;5022140;28;20080;-32
2023/05/11 03:55:38;;;;;;;11.35;5.82;;;;;;;18.54;42.39;101340.00;5023503;28;20464;-32
2023/05/11 03:58:07;;;;;;;11.48;5.95;;;;;;;18.52;42.61;101338.47;5027992;28;20650;-33
2023/05/11 04:00:36;;;;;;;11.82;5.60;;;;;;;18.47;42.59;101333.50;5025664;28;20041;-33
2023/05/11 04:03:05;;;;;;;37.78;21.42;;;;;;;18.45;42.55;101338.13;5029257;28;20718;-33
2023/05/11 04:05:30;;;;;;;10.00;5.75;;;;;;;18.42;42.53;101330.38;5027750;28;20029;-32
2023/05/11 04:07:56;;;;;;;12.77;6.07;;;;;;;18.35;42.68;101339.84;5032391;28;20086;-32
2023/05/11 04:10:22;;;;;;;11.23;5.60;;;;;;;18.30;42.83;101340.22;5033093;28;20123;-33
2023/05/11 04:12:49;;;;;;;12.98;6.35;;;;;;;18.31;42.96;101338.41;5029428;28;20432;-33
2023/05/11 04:15:15;;;;;;;14.63;5.85;;;;;;;18.33;42.87;101339.13;5039734;22;20120;-32
2023/05/11 04:17:41;;;;;;;12.63;5.40;;;;;;;18.27;42.92;101335.97;5007190;28;20411;-32
2023/05/11 04:20:06;;;;;;;11.60;6.65;;;;;;;18.32;42.90;101342.75;5017578;22;20169;-34
2023/05/11 04:22:32;;;;;;;10.13;5.95;;;;;;;18.32;42.99;101348.09;5009790;28;20488;-34
2023/05/11 04:24:57;;;;;;;11.52;5.80;;;;;;;18.35;42.97;101338.03;5022202;22;20041;-34
2023/05/11 04:27:23;;;;;;;11.18;6.10;;;;;;;18.40;42.76;101346.50;4985363;28;20034;-34
2023/05/11 04:29:48;;;;;;;9.80;4.82;;;;;;;18.41;42.77;101342.00;4998580;28;20129;-34
2023/05/11 04:32:14;;;;;;;9.57;5.63;;;;;;;18.39;42.86;101343.94;4957159;28;20432;-34
2023/05/11 04:34:40;;;;;;;8.90;6.18;;;;;;;18.38;42.98;101344.91;4985981;28;20046;-34
2023/05/11 04:37:06;;;;;;;12.85;5.65;;;;;;;18.42;43.12;101349.03;4985376;28;20026;-34
2023/05/11 04:39:33;;;;;;;11.35;5.90;;;;;;;18.41;43.09;101347.31;4964805;28;20184;-34
2023/05/11 04:41:59;;;;;;;7.55;5.05;;;;;;;18.40;43.06;101350.97;4984578;28;20030;-35
2023/05/11 04:44:24;;;;;;;13.30;5.88;;;;;;;18.33;43.30;101350.63;4987923;28;20041;-34
2023/05/11 04:46:56;;;;;;;10.60;5.38;;;;;;;18.35;43.45;101354.00;5049794;23;20045;-33
2023/05/11 04:49:22;;;;;;;8.13;5.50;;;;;;;18.38;43.35;101360.88;5048872;28;20040;-33
2023/05/11 04:51:47;;;;;;;15.38;6.68;;;;;;;18.39;43.36;101355.47;5046652;28;21204;-33
2023/05/11 04:54:13;;;;;;;11.80;6.30;;;;;;;18.40;43.52;101356.28;5058873;28;20033;-33
2023/05/11 04:56:39;;;;;;;10.40;6.15;;;;;;;18.45;43.48;101363.94;5042391;28;20036;-33
2023/05/11 04:59:08;;;;;;;12.10;6.13;;;;;;;18.51;43.39;101363.41;5046130;28;20514;-32
2023/05/11 05:01:34;;;;;;;11.30;6.05;;;;;;;18.52;43.36;101363.31;5042587;28;20109;-34
2023/05/11 05:03:59;;;;;;;10.02;3.95;;;;;;;18.54;43.36;101364.00;5044247;28;20040;-32
2023/05/11 05:06:25;;;;;;;10.80;5.63;;;;;;;18.58;43.34;101373.44;5031864;22;20045;-33
2023/05/11 05:08:50;;;;;;;12.77;6.25;;;;;;;18.58;43.42;101370.78;5006935;28;20550;-33
2023/05/11 05:11:16;;;;;;;11.40;6.30;;;;;;;18.57;43.56;101374.41;5028074;22;20088;-33
2023/05/11 05:13:42;;;;;;;8.25;6.05;;;;;;;18.58;43.47;101370.78;5040355;23;20049;-32
2023/05/11 05:16:08;;;;;;;11.38;5.50;;;;;;;18.57;43.61;101369.09;5046687;28;20090;-33
2023/05/11 05:18:34;;;;;;;13.55;5.60;;;;;;;18.58;43.63;101373.44;5049087;28;20511;-33
2023/05/11 05:20:59;;;;;;;14.52;6.50;;;;;;;18.61;43.58;101371.50;5050191;28;20075;-33
2023/05/11 05:23:25;;;;;;;10.73;5.63;;;;;;;18.59;43.67;101380.47;5049281;28;20108;-33
2023/05/11 05:25:50;;;;;;;13.18;5.65;;;;;;;18.61;43.44;101383.00;5038228;28;20380;-33
2023/05/11 05:28:16;;;;;;;12.50;6.35;;;;;;;18.62;43.57;101378.53;5064908;28;20029;-33
2023/05/11 05:30:42;;;;;;;13.43;6.93;;;;;;;18.63;43.44;101381.06;5037493;28;20057;-32
2023/05/11 05:33:07;;;;;;;11.05;6.65;;;;;;;18.62;43.67;101383.88;5041082;28;20025;-33
2023/05/11 05:35:32;;;;;;;15.07;6.90;;;;;;;18.61;43.46;101385.66;5042919;28;20029;-34
2023/05/11 05:37:58;;;;;;;11.50;7.07;;;;;;;18.64;43.66;101392.59;5047429;28;20467;-33
2023/05/11 05:40:23;;;;;;;12.88;7.60;;;;;;;18.67;43.69;101397.66;5040347;28;20037;-33
2023/05/11 05:42:49;;;;;;;12.00;5.30;;;;;;;18.73;43.43;101399.81;5043027;28;20033;-33
2023/05/11 05:45:14;;;;;;;11.75;5.75;;;;;;;18.80;43.34;101411.69;5050746;28;20048;-33
2023/05/11 05:47:40;;;;;;;10.77;6.18;;;;;;;18.87;43.40;101407.53;5046206;28;20037;-33
2023/05/11 05:50:06;;;;;;;10.02;6.13;;;;;;;18.94;43.15;101407.03;5043658;22;20045;-35
2023/05/11 05:52:32;;;;;;;8.90;5.05;;;;;;;18.94;43.06;101407.03;5024517;28;20084;-35
2023/05/11 05:54:57;;;;;;;7.47;4.97;;;;;;;18.97;43.10;101406.81;5037986;22;20503;-32
2023/05/11 05:57:23;;;;;;;10.60;5.28;;;;;;;18.93;43.04;101416.00;5004655;28;20041;-33
2023/05/11 05:59:48;;;;;;;9.55;4.68;;;;;;;18.89;43.00;101413.56;5020247;22;20396;-34
2023/05/11 06:02:14;;;;;;;9.10;4.85;;;;;;;18.93;43.14;101416.81;4988896;28;20033;-34
2023/05/11 06:04:40;;;;;;;6.22;4.22;;;;;;;18.97;43.06;101417.47;5007649;28;20033;-34
2023/05/11 06:07:06;;;;;;;8.85;6.10;;;;;;;19.02;43.12;101420.59;5007520;28;20026;-34
2023/05/11 06:09:32;;;;;;;9.13;5.97;;;;;;;19.02;43.32;101423.25;5004477;23;20077;-31
2023/05/11 06:11:57;;;;;;;10.95;5.07;;;;;;;19.04;43.07;101421.31;4949938;28;20034;-35
2023/05/11 06:14:22;;;;;;;11.70;5.32;;;;;;;19.11;43.11;101418.97;4996195;22;20046;-35
2023/05/11 06:16:48;;;;;;;11.88;5.43;;;;;;;19.16;43.18;101417.59;5004450;28;20030;-35
2023/05/11 06:19:14;;;;;;;9.07;5.35;;;;;;;19.21;43.17;101419.06;5005408;28;20052;-34
2023/05/11 06:21:44;;;;;;;9.70;5.07;;;;;;;19.23;43.03;101433.13;5003864;28;20082;-35
2023/05/11 06:24:09;;;;;;;11.57;5.88;;;;;;;19.27;43.28;101418.56;5005316;28;20030;-35
2023/05/11 06:26:35;;;;;;;11.55;6.15;;;;;;;19.37;43.12;101432.81;5005461;28;20393;-35
2023/05/11 06:29:00;;;;;;;10.95;6.75;;;;;;;19.40;43.14;101429.88;5005269;28;20542;-35
2023/05/11 06:31:26;;;;;;;15.88;8.63;;;;;;;19.39;43.00;101428.19;5003511;28;20089;-35
2023/05/11 06:33:52;;;;;;;15.25;9.38;;;;;;;19.34;43.18;101422.38;4999833;28;20034;-35
2023/05/11 06:36:17;;;;;;;9.75;5.68;;;;;;;19.34;43.35;101428.59;4999709;28;20436;-35
2023/05/11 06:38:43;;;;;;;10.13;5.03;;;;;;;19.41;43.31;101423.56;5005345;28;20053;-35
2023/05/11 06:41:10;;;;;;;11.50;4.63;;;;;;;19.42;43.21;101433.28;5006034;28;20030;-36
2023/05/11 06:43:36;;;;;;;9.38;5.03;;;;;;;19.44;43.15;101425.13;5005197;28;20398;-35
2023/05/11 06:46:02;;;;;;;9.32;4.72;;;;;;;19.42;43.17;101432.41;5005211;28;20077;-35
2023/05/11 06:48:28;;;;;;;8.93;5.32;;;;;;;19.42;43.23;101427.94;4990244;28;20078;-35
2023/05/11 06:50:54;;;;;;;9.70;5.53;;;;;;;19.45;43.07;101421.47;4999656;28;20029;-35
2023/05/11 06:53:20;;;;;;;9.98;4.68;;;;;;;19.48;43.22;101426.56;5002089;28;20049;-35
2023/05/11 06:55:46;;;;;;;7.72;4.78;;;;;;;19.53;42.95;101428.84;5001794;28;20065;-35
2023/05/11 06:58:12;;;;;;;14.10;5.90;;;;;;;19.57;42.91;101435.59;5002598;28;20034;-35
2023/05/11 07:00:38;;;;;;;9.93;5.43;;;;;;;19.58;43.17;101431.97;4985437;28;20111;-35
2023/05/11 07:03:04;;;;;;;9.13;5.20;;;;;;;19.61;42.82;101442.34;5006493;28;20105;-35
2023/05/11 07:05:30;;;;;;;7.63;5.28;;;;;;;19.61;42.96;101439.69;5008318;28;20044;-35
2023/05/11 07:07:55;;;;;;;12.15;4.93;;;;;;;19.61;42.87;101429.00;5001601;28;20030;-35
2023/05/11 07:10:21;;;;;;;12.20;5.35;;;;;;;19.58;42.92;101437.31;5001015;28;20052;-35
2023/05/11 07:12:46;;;;;;;11.73;6.13;;;;;;;19.62;42.89;101446.72;5000498;28;20030;-35
2023/05/11 07:15:12;;;;;;;11.52;6.13;;;;;;;19.59;43.04;101444.31;4999192;28;20508;-35
2023/05/11 07:17:37;;;;;;;19.55;5.90;;;;;;;19.61;42.90;101442.34;5008467;28;20045;-35
2023/05/11 07:20:03;;;;;;;9.48;5.38;;;;;;;19.63;43.12;101443.06;5007888;28;20026;-35
2023/05/11 07:22:28;;;;;;;13.13;6.38;;;;;;;19.61;43.27;101445.03;5007936;28;20435;-35
2023/05/11 07:24:53;;;;;;;13.95;5.88;;;;;;;19.61;43.04;101447.69;5005105;28;20127;-35
2023/05/11 07:27:19;;;;;;;9.82;4.97;;;;;;;19.62;43.11;101450.25;5002787;28;20025;-34
2023/05/11 07:29:46;;;;;;;10.35;5.75;;;;;;;19.63;43.14;101459.09;5004263;28;20108;-34
2023/05/11 07:32:12;;;;;;;11.07;5.30;;;;;;;19.62;43.17;101444.91;5001994;28;20040;-35
2023/05/11 07:34:40;;;;;;;9.23;5.18;;;;;;;19.64;43.17;101458.97;5003335;28;20034;-35
2023/05/11 07:37:07;;;;;;;9.20;5.70;;;;;;;19.66;42.94;101450.81;5005665;28;20045;-34
2023/05/11 07:39:32;;;;;;;8.60;4.75;;;;;;;19.67;42.94;101452.53;5005787;28;20077;-35
2023/05/11 07:41:58;;;;;;;7.78;5.55;;;;;;;19.68;42.80;101459.56;5000735;28;20022;-34
2023/05/11 07:44:23;;;;;;;12.30;5.63;;;;;;;19.65;43.06;101454.47;5000119;28;20034;-34
2023/05/11 07:46:49;;;;;;;15.13;9.13;;;;;;;19.67;42.93;101452.53;5002490;28;20037;-34
2023/05/11 07:49:14;;;;;;;13.95;7.43;;;;;;;19.64;43.03;101456.31;5002751;28;20026;-35
2023/05/11 07:51:40;;;;;;;9.63;5.28;;;;;;;19.65;42.76;101462.47;5002077;28;20609;-35
2023/05/11 07:54:05;;;;;;;10.30;4.82;;;;;;;19.67;43.15;101462.34;5008500;28;20072;-35
2023/05/11 07:56:30;;;;;;;17.20;5.10;;;;;;;19.69;43.03;101469.25;5004894;28;20559;-35
2023/05/11 07:58:56;;;;;;;12.18;5.72;;;;;;;19.71;42.84;101463.78;5004667;28;20057;-35
2023/05/11 08:01:21;;;;;;;12.98;5.63;;;;;;;19.73;43.00;101468.03;5002817;28;20030;-35
2023/05/11 08:03:47;;;;;;;10.35;6.00;;;;;;;19.75;42.78;101460.72;5011551;28;20424;-34
2023/05/11 08:06:12;;;;;;;11.45;5.72;;;;;;;19.71;42.94;101461.09;4988201;28;20416;-34
2023/05/11 08:08:38;;;;;;;11.65;5.85;;;;;;;19.73;42.99;101456.50;5001529;28;20033;-35
2023/05/11 08:11:04;;;;;;;13.13;7.30;;;;;;;19.77;43.20;101452.59;5003713;28;20113;-34
2023/05/11 08:13:30;;;;;;;9.40;5.15;;;;;;;19.79;43.31;101447.97;5007632;28;20044;-35
2023/05/11 08:15:56;;;;;;;10.02;5.03;;;;;;;19.81;43.25;101467.38;5000870;28;20947;-35
2023/05/11 08:18:21;;;;;;;15.77;5.32;;;;;;;19.84;42.85;101468.91;5012934;28;20033;-35
2023/05/11 08:20:47;;;;;;;12.40;5.03;;;;;;;19.88;43.14;101465.88;5000594;28;20042;-35
2023/05/11 08:23:16;;;;;;;10.48;4.70;;;;;;;19.90;42.75;101469.28;5002752;28;20384;-35
2023/05/11 08:25:55;;;;;;;7.25;4.30;;;;;;;19.94;43.28;101467.19;5005492;28;20099;-34
2023/05/11 08:28:21;;;;;;;11.48;5.22;;;;;;;19.97;42.97;101463.38;5004840;28;20045;-34
2023/05/11 08:30:52;;;;;;;4.53;2.92;;;;;;;19.99;42.85;101464.09;5002739;28;20038;-34
2023/05/11 08:33:17;;;;;;;12.77;4.93;;;;;;;20.01;42.75;101454.13;5002839;28;20025;-34
2023/05/11 08:35:43;;;;;;;11.00;4.65;;;;;;;20.06;42.81;101460.75;5004038;28;20506;-34
2023/05/11 08:38:08;;;;;;;15.52;6.80;;;;;;;20.10;42.78;101459.53;5004695;28;20029;-34
2023/05/11 08:40:34;;;;;;;8.55;4.85;;;;;;;20.14;42.38;101462.75;5007550;28;20033;-35
2023/05/11 08:43:01;;;;;;;8.25;4.90;;;;;;;20.17;42.71;101459.84;5014028;28;20030;-34
2023/05/11 08:45:30;;;;;;;10.57;4.35;;;;;;;20.22;42.42;101459.44;4985716;28;20118;-35
2023/05/11 08:47:55;;;;;;;11.40;4.60;;;;;;;20.23;42.69;101455.78;5007435;28;20033;-35
2023/05/11 08:50:21;;;;;;;10.02;4.97;;;;;;;20.28;42.43;101461.56;5004858;28;20030;-34
2023/05/11 08:52:47;;;;;;;9.10;4.40;;;;;;;20.32;42.71;101449.63;4977401;28;20125;-35
2023/05/11 08:55:12;;;;;;;12.07;5.65;;;;;;;20.37;42.57;101447.38;5010190;28;20030;-35
2023/05/11 08:57:40;;;;;;;16.50;6.75;;;;;;;20.42;42.57;101446.97;5006131;28;20026;-36
2023/05/11 09:00:07;;;;;;;7.50;4.90;;;;;;;20.46;42.27;101442.22;5001266;28;20042;-35
2023/05/11 09:02:33;;;;;;;10.15;4.35;;;;;;;20.49;42.41;101444.63;4991073;28;20412;-35
2023/05/11 09:05:02;;;;;;;7.85;4.03;;;;;;;20.52;42.37;101447.00;5001594;28;20026;-34
2023/05/11 09:07:28;;;;;;;7.65;4.68;;;;;;;20.55;41.92;101446.72;5006249;28;20038;-34
2023/05/11 09:09:53;;;;;;;7.25;3.95;;;;;;;20.62;41.82;101447.88;5004697;28;20121;-35
2023/05/11 09:12:19;;;;;;;7.53;3.75;;;;;;;20.67;42.01;101450.16;5003385;28;20040;-35
2023/05/11 09:14:46;;;;;;;5.88;3.85;;;;;;;20.69;41.67;101443.66;5009333;28;20037;-35
2023/05/11 09:17:11;;;;;;;6.78;4.07;;;;;;;20.73;41.51;101443.41;5008276;28;20076;-34
2023/05/11 09:19:56;;;;;;;8.13;4.57;;;;;;;20.80;41.24;101441.88;5005473;28;20033;-34
2023/05/11 09:22:21;;;;;;;7.07;4.43;;;;;;;20.83;41.48;101442.47;5003792;28;20401;-34
2023/05/11 09:24:47;;;;;;;9.25;4.50;;;;;;;20.90;41.71;101448.09;5000741;28;20485;-34
2023/05/11 09:27:13;;;;;;;8.73;4.47;;;;;;;20.94;41.54;101438.81;5008273;28;20504;-34
2023/05/11 09:29:38;;;;;;;8.18;4.82;;;;;;;21.00;41.17;101437.41;5003070;28;20050;-34
2023/05/11 09:32:04;;;;;;;7.78;4.28;;;;;;;21.07;41.50;101435.03;5003581;28;20049;-34
2023/05/11 09:34:30;;;;;;;7.05;3.55;;;;;;;21.12;41.24;101438.09;5004868;28;20389;-37
2023/05/11 09:36:56;;;;;;;9.75;4.60;;;;;;;21.17;40.93;101430.50;5004021;28;20033;-35
2023/05/11 09:39:35;;;;;;;19.33;10.05;;;;;;;21.25;41.09;101427.94;5046244;23;20107;-33
2023/05/11 09:42:13;;;;;;;8.48;5.30;;;;;;;21.32;41.33;101431.75;5035297;23;20069;-34
2023/05/11 09:44:40;;;;;;;6.90;3.30;;;;;;;21.37;40.95;101431.31;4986156;28;20104;-36
2023/05/11 09:47:16;;;;;;;8.95;3.55;;;;;;;21.46;40.68;101434.97;4993690;23;20046;-35
2023/05/11 09:49:43;;;;;;;8.25;3.20;;;;;;;21.54;40.34;101432.44;4973618;28;20053;-33
2023/05/11 09:52:13;;;;;;;9.52;4.22;;;;;;;21.66;39.90;101434.97;5007188;28;20026;-33
2023/05/11 09:55:09;;;;;;;8.70;3.47;;;;;;;21.75;39.75;101434.94;4990337;28;20030;-33
2023/05/11 09:57:34;;;;;;;6.63;3.40;;;;;;;21.86;39.59;101436.59;5030606;23;20045;-33
2023/05/11 09:59:59;;;;;;;7.47;4.47;;;;;;;22.00;39.46;101445.16;5027310;28;20089;-34
2023/05/11 10:02:26;;;;;;;7.22;3.90;;;;;;;22.06;39.06;101441.88;5026422;28;20030;-32
2023/05/11 10:04:54;;;;;;;10.18;4.10;;;;;;;22.15;39.01;101441.03;5019000;28;20029;-34
2023/05/11 10:07:31;;;;;;;6.13;3.95;;;;;;;22.25;39.25;101442.81;5005694;23;20042;-34
2023/05/11 10:09:58;;;;;;;4.65;3.35;;;;;;;22.29;39.02;101434.31;5005989;28;20116;-34
2023/05/11 10:12:26;;;;;;;7.43;3.70;;;;;;;22.34;38.84;101439.22;5005515;28;20411;-34
2023/05/11 10:15:03;;;;;;;6.10;3.63;;;;;;;22.38;38.51;101429.88;5003293;28;20048;-36
2023/05/11 10:17:32;;;;;;;7.78;4.28;;;;;;;22.42;38.74;101425.09;5005036;28;20120;-35
2023/05/11 10:19:59;;;;;;;10.35;5.63;;;;;;;22.49;38.43;101432.38;5002458;28;20156;-35
2023/05/11 10:22:26;;;;;;;9.90;6.05;;;;;;;22.56;38.07;101429.94;4999634;28;20037;-35
2023/05/11 10:24:52;;;;;;;6.80;4.38;;;;;;;22.60;38.00;101427.81;5006400;28;20029;-35
2023/05/11 10:27:18;;;;;;;5.90;2.67;;;;;;;22.66;37.54;101430.75;4989481;28;20039;-34
2023/05/11 10:29:44;;;;;;;8.52;4.43;;;;;;;22.73;37.21;101425.63;5007119;28;20042;-34
2023/05/11 10:32:10;;;;;;;5.63;3.10;;;;;;;22.76;37.04;101422.63;5004717;28;20022;-35
2023/05/11 10:34:38;;;;;;;6.05;3.00;;;;;;;22.79;36.85;101422.31;5007326;28;20045;-35
2023/05/11 10:37:05;;;;;;;5.93;3.20;;;;;;;22.80;36.35;101423.16;5006593;28;20038;-34
2023/05/11 10:39:31;;;;;;;5.90;3.13;;;;;;;22.79;36.41;101419.63;5003300;28;20060;-34
2023/05/11 10:42:19;;;;;;;6.22;3.35;;;;;;;22.80;36.04;101421.31;5005361;28;20034;-35
2023/05/11 10:44:53;;;;;;;6.90;2.90;;;;;;;22.83;35.56;101418.31;5005318;28;20030;-34
2023/05/11 10:47:40;;;;;;;5.25;2.70;;;;;;;22.90;35.59;101423.09;5007961;28;20105;-35
2023/05/11 10:50:56;;;;;;;4.65;2.85;;;;;;;22.94;35.33;101408.34;5003411;28;20021;-35
2023/05/11 10:53:46;;;;;;;5.97;3.20;;;;;;;22.94;35.72;101413.72;4921801;29;20107;-35
2023/05/11 10:56:42;;;;;;;5.97;3.85;;;;;;;22.99;35.88;101409.56;5001635;28;20048;-35
2023/05/11 10:59:26;;;;;;;7.68;3.70;;;;;;;23.05;35.34;101405.44;5005597;28;20116;-35
2023/05/11 11:01:56;;;;;;;4.80;3.22;;;;;;;23.08;35.75;101409.66;5003766;28;20164;-35
2023/05/11 11:04:22;;;;;;;6.70;3.03;;;;;;;23.09;35.60;101412.16;5006802;28;20030;-34
2023/05/11 11:07:03;;;;;;;8.60;3.30;;;;;;;23.18;35.07;101414.94;5014825;22;20065;-32
2023/05/11 11:09:51;;;;;;;5.28;3.33;;;;;;;23.28;35.35;101418.41;5017467;22;20017;-34
2023/05/11 11:12:17;;;;;;;6.82;3.85;;;;;;;23.35;35.51;101416.78;5047928;28;20025;-34
2023/05/11 11:14:57;;;;;;;5.90;3.42;;;;;;;23.47;35.59;101413.84;5040822;23;20049;-35
2023/05/11 11:17:33;;;;;;;10.23;3.80;;;;;;;23.54;35.40;101420.25;5022095;28;20037;-33
2023/05/11 11:20:07;;;;;;;6.38;4.03;;;;;;;23.62;34.88;101417.63;5004327;28;20085;-33
2023/05/11 11:22:37;;;;;;;11.00;4.03;;;;;;;23.64;34.75;101410.25;5024889;22;20089;-35
2023/05/11 11:25:04;;;;;;;7.75;2.72;;;;;;;23.65;34.62;101416.47;5002299;28;20023;-32
2023/05/11 11:27:39;;;;;;;4.55;2.47;;;;;;;23.69;34.54;101413.28;5055536;22;20148;-34